Time;durP1;ratioP1;P1;durP2;ratioP2;P2;SDS_P1;SDS_P2;PMS_P1;PMS_P2;Temp;Humidity;BMP_temperature;BMP_pressure;BME280_temperature;BME280_humidity;BME280_pressure;Samples;Min_cycle;Max_cycle;Signal;HPM_P1;HPM_P2
2024/01/25 00:00:10;;;;;;;13.30;2.07;;;6.80;1.00;;;;;;8391578;28;20633;-63
2024/01/25 00:04:11;;;;;;;12.23;2.33;;;6.80;1.00;;;;;;8392833;28;20185;-64
2024/01/25 00:08:12;;;;;;;10.03;2.43;;;6.90;1.00;;;;;;8390513;28;20279;-63
2024/01/25 00:12:12;;;;;;;9.97;2.20;;;6.90;1.00;;;;;;8405297;28;20198;-62
2024/01/25 00:16:13;;;;;;;8.57;1.93;;;6.90;1.00;;;;;;8397218;28;20173;-64
2024/01/25 00:20:14;;;;;;;12.67;2.73;;;7.10;1.00;;;;;;8391615;28;20390;-64
2024/01/25 00:24:15;;;;;;;9.27;2.10;;;7.20;1.00;;;;;;8395563;28;20191;-62
2024/01/25 00:28:15;;;;;;;9.20;2.13;;;7.10;1.00;;;;;;8390351;28;20184;-65
2024/01/25 00:32:16;;;;;;;8.33;2.40;;;7.20;1.00;;;;;;8401303;28;20192;-65
2024/01/25 00:36:17;;;;;;;10.70;2.20;;;7.20;1.00;;;;;;8398891;28;20211;-65
2024/01/25 00:40:19;;;;;;;10.80;2.10;;;7.10;1.00;;;;;;8400906;28;20204;-63
2024/01/25 00:44:19;;;;;;;11.00;2.40;;;7.20;1.00;;;;;;8390734;28;20188;-62
2024/01/25 00:48:21;;;;;;;10.33;3.17;;;7.20;1.00;;;;;;8388090;28;20204;-63
2024/01/25 00:52:22;;;;;;;13.43;2.57;;;7.30;1.00;;;;;;8401654;28;20188;-62
2024/01/25 00:56:23;;;;;;;11.17;1.80;;;7.20;1.00;;;;;;8390483;28;20200;-63
2024/01/25 01:00:24;;;;;;;18.03;3.07;;;7.10;1.00;;;;;;8388860;28;20217;-62
2024/01/25 01:04:26;;;;;;;8.73;2.07;;;7.20;1.00;;;;;;8388240;28;20374;-62
2024/01/25 01:08:27;;;;;;;9.77;2.70;;;7.10;1.00;;;;;;8389777;28;20267;-63
2024/01/25 01:12:28;;;;;;;11.53;2.17;;;7.20;1.00;;;;;;8392065;28;20268;-62
2024/01/25 01:16:32;;;;;;;9.53;2.30;;;7.30;1.00;;;;;;8398826;28;20190;-63
2024/01/25 01:20:33;;;;;;;10.13;2.60;;;7.20;1.00;;;;;;8390408;28;20221;-61
2024/01/25 01:24:34;;;;;;;14.97;2.00;;;7.30;1.00;;;;;;8393097;28;20172;-62
2024/01/25 01:28:34;;;;;;;8.57;1.83;;;7.30;1.00;;;;;;8388284;28;20180;-61
2024/01/25 01:32:35;;;;;;;7.10;2.30;;;7.30;1.00;;;;;;8397966;28;20192;-63
2024/01/25 01:36:36;;;;;;;9.47;2.00;;;7.10;1.00;;;;;;8390454;28;20206;-61
2024/01/25 01:40:36;;;;;;;9.07;1.80;;;7.20;1.00;;;;;;8390871;28;20295;-62
2024/01/25 01:44:38;;;;;;;9.23;2.10;;;7.30;1.00;;;;;;8387970;28;20193;-64
2024/01/25 01:48:40;;;;;;;9.93;2.43;;;7.30;1.00;;;;;;8386839;28;20184;-64
2024/01/25 01:52:41;;;;;;;9.80;2.30;;;7.30;1.00;;;;;;8389669;28;20181;-61
2024/01/25 01:56:42;;;;;;;7.30;1.87;;;7.20;1.00;;;;;;8395784;28;20192;-62
2024/01/25 02:00:43;;;;;;;8.87;1.87;;;7.20;1.00;;;;;;8389372;28;20220;-62
2024/01/25 02:04:44;;;;;;;7.17;2.13;;;7.30;1.00;;;;;;8387422;28;20648;-63
2024/01/25 02:08:45;;;;;;;10.17;2.33;;;7.20;1.00;;;;;;8386764;28;20187;-61
2024/01/25 02:12:46;;;;;;;11.43;2.10;;;7.20;1.00;;;;;;8386641;28;20237;-64
2024/01/25 02:16:46;;;;;;;9.43;2.17;;;7.10;1.00;;;;;;8389081;28;20189;-62
2024/01/25 02:20:47;;;;;;;13.23;2.97;;;7.10;1.00;;;;;;8392198;28;20219;-63
2024/01/25 02:24:48;;;;;;;9.60;2.27;;;7.20;1.00;;;;;;8388865;28;20185;-64
2024/01/25 02:28:49;;;;;;;11.37;2.43;;;7.20;1.00;;;;;;8389034;28;20275;-61
2024/01/25 02:32:49;;;;;;;8.57;2.40;;;7.20;1.00;;;;;;8386352;28;20185;-60
2024/01/25 02:36:50;;;;;;;11.67;2.37;;;7.20;1.00;;;;;;8391004;28;20297;-62
2024/01/25 02:40:53;;;;;;;8.23;1.90;;;7.20;1.00;;;;;;8386434;28;20241;-65
2024/01/25 02:44:54;;;;;;;8.40;2.00;;;7.20;1.00;;;;;;8387563;28;20189;-64
2024/01/25 02:48:55;;;;;;;11.83;2.70;;;7.20;1.00;;;;;;8388047;28;20183;-63
2024/01/25 02:52:55;;;;;;;10.93;2.30;;;7.00;1.00;;;;;;8391351;28;20182;-63
2024/01/25 02:56:56;;;;;;;6.93;2.50;;;7.10;1.00;;;;;;8388701;28;20189;-63
2024/01/25 03:00:57;;;;;;;10.10;2.27;;;7.10;1.00;;;;;;8388523;28;20219;-63
2024/01/25 03:04:58;;;;;;;10.97;2.43;;;7.20;1.00;;;;;;8389608;28;20188;-65
2024/01/25 03:08:58;;;;;;;8.53;2.27;;;7.30;1.00;;;;;;8387876;28;20185;-62
2024/01/25 03:12:59;;;;;;;8.90;1.97;;;7.30;1.00;;;;;;8395755;28;20576;-64
2024/01/25 03:17:00;;;;;;;8.67;2.20;;;7.30;1.00;;;;;;8397113;28;20211;-66
2024/01/25 03:21:00;;;;;;;8.43;2.10;;;7.40;1.00;;;;;;8392292;28;20222;-64
2024/01/25 03:25:01;;;;;;;10.97;2.33;;;7.30;1.00;;;;;;8393760;28;20192;-63
2024/01/25 03:29:02;;;;;;;9.50;2.27;;;7.40;1.00;;;;;;8394530;28;20218;-62
2024/01/25 03:33:03;;;;;;;10.27;2.50;;;7.40;1.00;;;;;;8392591;28;20191;-61
2024/01/25 03:37:04;;;;;;;9.83;2.33;;;7.40;1.00;;;;;;8399725;28;20192;-61
2024/01/25 03:41:04;;;;;;;11.80;2.80;;;7.50;1.00;;;;;;8395255;28;20222;-62
2024/01/25 03:45:06;;;;;;;11.40;2.17;;;7.40;1.00;;;;;;8393482;28;20177;-62
2024/01/25 03:49:06;;;;;;;9.13;2.33;;;7.50;1.00;;;;;;8392785;28;20283;-61
2024/01/25 03:53:07;;;;;;;10.23;2.40;;;7.40;1.00;;;;;;8392623;28;20188;-63
2024/01/25 03:57:08;;;;;;;11.23;2.60;;;7.50;1.00;;;;;;8389336;28;20192;-61
2024/01/25 04:01:09;;;;;;;8.37;2.63;;;7.50;1.00;;;;;;8394666;28;20251;-60
2024/01/25 04:05:10;;;;;;;10.40;2.40;;;7.50;1.00;;;;;;8395243;28;20200;-62
2024/01/25 04:09:10;;;;;;;9.93;2.30;;;7.40;1.00;;;;;;8392824;28;20196;-62
2024/01/25 04:13:11;;;;;;;12.30;2.70;;;7.40;1.00;;;;;;8392212;28;20266;-62
2024/01/25 04:17:12;;;;;;;8.23;2.77;;;7.30;1.00;;;;;;8393951;28;20185;-63
2024/01/25 04:21:13;;;;;;;12.00;2.67;;;7.30;1.00;;;;;;8392975;28;20223;-64
2024/01/25 04:25:14;;;;;;;12.23;2.30;;;7.30;1.00;;;;;;8393196;28;20193;-62
2024/01/25 04:29:14;;;;;;;10.90;1.80;;;7.30;1.00;;;;;;8391427;28;20193;-62
2024/01/25 04:33:15;;;;;;;9.97;2.37;;;7.30;1.00;;;;;;8391868;28;20187;-62
2024/01/25 04:37:16;;;;;;;13.40;2.53;;;7.20;1.00;;;;;;8390981;28;20195;-61
2024/01/25 04:41:16;;;;;;;9.27;2.17;;;7.20;1.00;;;;;;8394181;28;20216;-62
2024/01/25 04:45:17;;;;;;;9.87;2.23;;;7.20;1.00;;;;;;8399958;28;20237;-61
2024/01/25 04:49:18;;;;;;;10.50;2.50;;;7.20;1.00;;;;;;8397732;28;20664;-61
2024/01/25 04:53:19;;;;;;;8.07;2.60;;;7.10;1.00;;;;;;8391266;28;20199;-64
2024/01/25 04:57:19;;;;;;;6.80;1.90;;;7.10;1.00;;;;;;8392298;28;20181;-61
2024/01/25 05:01:20;;;;;;;15.00;2.80;;;7.00;1.00;;;;;;8390824;28;20220;-62
2024/01/25 05:05:21;;;;;;;14.67;2.83;;;6.90;1.00;;;;;;8392873;28;20598;-63
2024/01/25 05:09:22;;;;;;;17.00;2.93;;;6.80;1.00;;;;;;8393181;28;20190;-63
2024/01/25 05:13:22;;;;;;;12.37;3.27;;;6.70;1.00;;;;;;8396134;28;20227;-63
2024/01/25 05:17:23;;;;;;;13.20;3.50;;;6.70;1.00;;;;;;8386627;28;20293;-61
2024/01/25 05:21:24;;;;;;;16.07;3.37;;;6.70;1.00;;;;;;8389467;28;20250;-63
2024/01/25 05:25:26;;;;;;;11.57;2.87;;;6.70;1.00;;;;;;8391295;28;20216;-65
2024/01/25 05:29:26;;;;;;;15.90;3.27;;;6.80;1.00;;;;;;8397639;28;20217;-61
2024/01/25 05:33:27;;;;;;;14.20;3.27;;;6.80;1.00;;;;;;8392093;28;20209;-62
2024/01/25 05:37:28;;;;;;;13.20;3.57;;;6.90;1.00;;;;;;8387276;28;20191;-61
2024/01/25 05:41:29;;;;;;;15.80;3.10;;;6.90;1.00;;;;;;8390969;28;20266;-63
2024/01/25 05:45:30;;;;;;;13.13;3.07;;;6.90;1.00;;;;;;8391061;28;20274;-61
2024/01/25 05:49:31;;;;;;;11.40;2.90;;;6.90;1.00;;;;;;8392050;28;20193;-62
2024/01/25 05:53:32;;;;;;;10.90;3.13;;;6.90;1.00;;;;;;8387022;28;20191;-61
2024/01/25 05:57:34;;;;;;;11.60;2.23;;;7.00;1.00;;;;;;8393073;28;20176;-62
2024/01/25 06:01:35;;;;;;;14.70;2.77;;;7.00;1.00;;;;;;8387104;28;20218;-65
2024/01/25 06:05:36;;;;;;;14.10;3.07;;;7.00;1.00;;;;;;8393814;28;20479;-63
2024/01/25 06:09:37;;;;;;;11.57;2.60;;;7.00;1.00;;;;;;8386211;28;20196;-67
2024/01/25 06:13:38;;;;;;;13.47;2.50;;;7.00;1.00;;;;;;8396855;28;20475;-61
2024/01/25 06:17:39;;;;;;;12.20;3.17;;;7.00;1.00;;;;;;8386805;28;20185;-64
2024/01/25 06:21:39;;;;;;;8.00;2.70;;;7.00;1.00;;;;;;8389542;28;20209;-60
2024/01/25 06:25:40;;;;;;;7.20;2.50;;;7.10;1.00;;;;;;8390329;28;20244;-60
2024/01/25 06:29:41;;;;;;;12.13;2.67;;;7.10;1.00;;;;;;8389972;28;20243;-63
2024/01/25 06:33:42;;;;;;;14.57;2.53;;;7.10;1.00;;;;;;8391499;28;20193;-60
2024/01/25 06:37:43;;;;;;;11.37;2.63;;;7.10;1.00;;;;;;8395841;28;20201;-62
2024/01/25 06:41:43;;;;;;;14.17;2.73;;;7.10;1.00;;;;;;8387452;28;20348;-61
2024/01/25 06:45:45;;;;;;;12.30;2.77;;;7.10;1.00;;;;;;8390185;28;20196;-63
2024/01/25 06:49:49;;;;;;;10.23;2.37;;;7.10;1.00;;;;;;8396468;28;20280;-63
2024/01/25 06:53:49;;;;;;;12.27;3.10;;;7.10;1.00;;;;;;8397232;28;20276;-62
2024/01/25 06:57:51;;;;;;;15.60;4.40;;;7.10;1.00;;;;;;8393819;28;20191;-67
2024/01/25 07:01:51;;;;;;;13.83;3.60;;;7.10;1.00;;;;;;8396013;28;20225;-67
2024/01/25 07:05:52;;;;;;;15.87;3.40;;;7.10;1.00;;;;;;8397282;28;20279;-65
2024/01/25 07:09:53;;;;;;;9.93;2.30;;;7.10;1.00;;;;;;8394552;28;20249;-68
2024/01/25 07:13:53;;;;;;;9.27;2.43;;;7.20;1.00;;;;;;8391667;28;20262;-69
2024/01/25 07:17:54;;;;;;;9.13;1.97;;;7.20;1.00;;;;;;8395177;28;20254;-68
2024/01/25 07:21:55;;;;;;;11.60;2.37;;;7.20;1.00;;;;;;8393831;28;20200;-65
2024/01/25 07:25:55;;;;;;;11.30;2.40;;;7.10;1.00;;;;;;8388904;28;20195;-66
2024/01/25 07:29:56;;;;;;;9.93;2.03;;;7.20;1.00;;;;;;8395277;28;20193;-65
2024/01/25 07:33:57;;;;;;;9.70;2.50;;;7.10;1.00;;;;;;8392512;28;20227;-65
2024/01/25 07:37:58;;;;;;;11.90;2.17;;;7.10;1.00;;;;;;8394910;28;20193;-66
2024/01/25 07:41:58;;;;;;;8.93;2.37;;;7.20;1.00;;;;;;8393267;28;20288;-65
2024/01/25 07:45:59;;;;;;;11.63;2.50;;;7.10;1.00;;;;;;8390618;28;20585;-69
2024/01/25 07:50:00;;;;;;;11.53;2.57;;;7.20;1.00;;;;;;8397571;28;20202;-67
2024/01/25 07:54:02;;;;;;;8.83;2.20;;;7.10;1.00;;;;;;8401088;28;20194;-67
2024/01/25 07:58:03;;;;;;;10.80;2.90;;;7.10;1.00;;;;;;8396520;28;20185;-64
2024/01/25 08:02:03;;;;;;;12.73;2.43;;;7.00;1.00;;;;;;8401714;28;20296;-65
2024/01/25 08:06:07;;;;;;;14.23;2.77;;;7.00;1.00;;;;;;8402304;28;20197;-63
2024/01/25 08:10:08;;;;;;;11.30;2.57;;;7.00;1.00;;;;;;8405566;28;20236;-63
2024/01/25 08:14:10;;;;;;;9.47;2.30;;;6.90;1.00;;;;;;8395027;28;20185;-65
2024/01/25 08:18:11;;;;;;;12.40;2.60;;;7.00;1.00;;;;;;8397591;28;20193;-64
2024/01/25 08:22:12;;;;;;;11.33;2.23;;;7.00;1.00;;;;;;8397406;28;20213;-66
2024/01/25 08:26:13;;;;;;;11.97;2.20;;;7.00;1.00;;;;;;8394827;28;20275;-64
2024/01/25 08:30:14;;;;;;;9.03;2.30;;;7.10;1.00;;;;;;8396058;28;20196;-68
2024/01/25 08:34:15;;;;;;;11.17;2.20;;;7.00;1.00;;;;;;8395986;28;20216;-64
2024/01/25 08:38:15;;;;;;;13.47;2.60;;;6.90;1.00;;;;;;8394539;28;20193;-65
2024/01/25 08:42:18;;;;;;;12.60;2.97;;;6.70;1.00;;;;;;8394537;28;20251;-64
2024/01/25 08:46:19;;;;;;;10.13;2.57;;;6.60;1.00;;;;;;8393831;28;20219;-66
2024/01/25 08:50:19;;;;;;;11.90;2.53;;;6.70;1.00;;;;;;8394030;28;20250;-64
2024/01/25 08:54:20;;;;;;;12.07;2.67;;;6.80;1.00;;;;;;8395519;28;20189;-63
2024/01/25 08:58:21;;;;;;;13.13;2.40;;;6.90;1.00;;;;;;8395565;28;20216;-66
2024/01/25 09:02:26;;;;;;;10.30;2.17;;;7.00;1.00;;;;;;8392551;28;20185;-67
2024/01/25 09:06:27;;;;;;;8.63;1.83;;;7.00;1.00;;;;;;8392391;28;20179;-65
2024/01/25 09:10:27;;;;;;;8.10;1.53;;;7.10;1.00;;;;;;8392341;28;20282;-67
2024/01/25 09:14:28;;;;;;;12.97;2.70;;;7.20;1.00;;;;;;8392695;28;20211;-66
2024/01/25 09:18:29;;;;;;;7.70;1.87;;;7.20;1.00;;;;;;8391323;28;20199;-68
2024/01/25 09:22:30;;;;;;;14.00;2.60;;;7.30;1.00;;;;;;8393867;28;20177;-66
2024/01/25 09:26:31;;;;;;;16.07;2.50;;;7.30;1.00;;;;;;8391357;28;20263;-67
2024/01/25 09:30:31;;;;;;;12.03;2.23;;;7.20;1.00;;;;;;8392634;28;20531;-68
2024/01/25 09:34:32;;;;;;;9.73;2.63;;;7.20;1.00;;;;;;8393373;28;20201;-66
2024/01/25 09:38:33;;;;;;;13.20;3.03;;;7.30;1.00;;;;;;8393473;28;20184;-68
2024/01/25 09:42:35;;;;;;;12.00;2.57;;;7.30;1.00;;;;;;8394335;28;20181;-65
2024/01/25 09:46:38;;;;;;;15.97;2.30;;;7.40;1.00;;;;;;8389754;28;20263;-67
2024/01/25 09:50:39;;;;;;;11.47;2.27;;;7.50;1.00;;;;;;8391508;28;20196;-65
2024/01/25 09:54:40;;;;;;;9.70;2.17;;;7.40;1.00;;;;;;8390659;28;20264;-67
2024/01/25 09:58:47;;;;;;;11.03;2.40;;;7.30;1.00;;;;;;8395067;28;20582;-66
2024/01/25 10:02:51;;;;;;;9.90;2.40;;;7.40;1.00;;;;;;8399209;28;20206;-68
2024/01/25 10:06:56;;;;;;;10.83;2.30;;;7.20;1.00;;;;;;8394641;28;20216;-66
2024/01/25 10:10:57;;;;;;;9.57;2.90;;;7.30;1.00;;;;;;8392361;28;20212;-65
2024/01/25 10:14:59;;;;;;;12.10;2.30;;;7.30;1.00;;;;;;8389233;28;20586;-67
2024/01/25 10:19:02;;;;;;;14.63;2.97;;;7.30;1.00;;;;;;8393888;28;20205;-67
2024/01/25 10:23:02;;;;;;;7.77;2.83;;;7.10;1.00;;;;;;8387018;28;20559;-64
2024/01/25 10:27:03;;;;;;;13.13;3.40;;;7.10;1.00;;;;;;8388890;28;20200;-66
2024/01/25 10:31:06;;;;;;;10.97;2.87;;;7.10;1.00;;;;;;8392698;28;20189;-68
2024/01/25 10:35:08;;;;;;;10.43;2.50;;;7.20;1.00;;;;;;8386720;28;20200;-63
2024/01/25 10:39:09;;;;;;;9.17;2.37;;;7.10;1.00;;;;;;8383922;28;20327;-65
2024/01/25 10:43:10;;;;;;;10.53;2.30;;;7.20;1.00;;;;;;8392201;28;20180;-65
2024/01/25 10:47:12;;;;;;;9.10;2.37;;;7.00;1.00;;;;;;8387497;28;20185;-68
2024/01/25 10:51:14;;;;;;;8.03;2.90;;;6.90;1.00;;;;;;8391913;28;20195;-66
2024/01/25 10:55:17;;;;;;;11.93;2.60;;;6.90;1.00;;;;;;8390334;28;20613;-67
2024/01/25 10:59:18;;;;;;;9.07;2.10;;;7.00;1.00;;;;;;8382913;28;20205;-66
2024/01/25 11:03:19;;;;;;;8.70;2.33;;;6.90;1.00;;;;;;8405683;28;20183;-66
2024/01/25 11:07:20;;;;;;;10.50;2.37;;;6.90;1.00;;;;;;8387689;28;20292;-65
2024/01/25 11:11:23;;;;;;;12.70;2.30;;;7.00;1.00;;;;;;8390868;28;20190;-65
2024/01/25 11:15:31;;;;;;;12.53;2.30;;;7.10;1.00;;;;;;8392214;28;20197;-64
2024/01/25 11:19:33;;;;;;;12.73;2.17;;;7.20;1.00;;;;;;8386331;28;20213;-67
2024/01/25 11:23:34;;;;;;;12.33;2.37;;;7.30;1.00;;;;;;8385173;28;20188;-65
2024/01/25 11:27:35;;;;;;;8.57;2.33;;;7.30;1.00;;;;;;8391284;28;20717;-68
2024/01/25 11:31:36;;;;;;;10.10;2.80;;;7.20;1.00;;;;;;8389255;28;20191;-65
2024/01/25 11:35:37;;;;;;;13.17;2.33;;;7.20;1.00;;;;;;8399845;28;20286;-67
2024/01/25 11:39:38;;;;;;;12.40;2.93;;;7.30;1.00;;;;;;8397920;28;20783;-65
2024/01/25 11:43:40;;;;;;;10.43;2.47;;;7.20;1.00;;;;;;8398792;28;20192;-65
2024/01/25 11:47:42;;;;;;;12.10;2.80;;;7.30;1.00;;;;;;8394353;28;20185;-65
2024/01/25 11:51:43;;;;;;;12.90;2.73;;;7.30;1.00;;;;;;8395133;28;20219;-68
2024/01/25 11:55:44;;;;;;;14.63;2.70;;;7.30;1.00;;;;;;8388926;28;20195;-67
2024/01/25 11:59:45;;;;;;;14.70;2.40;;;7.20;1.00;;;;;;8401883;28;20223;-64
2024/01/25 12:03:46;;;;;;;10.37;2.30;;;7.10;1.00;;;;;;8396409;28;20644;-66
2024/01/25 12:07:47;;;;;;;13.23;2.70;;;7.10;1.00;;;;;;8392331;28;20189;-64
2024/01/25 12:11:50;;;;;;;9.57;2.70;;;7.20;1.00;;;;;;8393050;28;20193;-64
2024/01/25 12:15:55;;;;;;;9.93;2.20;;;7.20;1.00;;;;;;8395982;28;20192;-65
2024/01/25 12:19:57;;;;;;;8.23;1.63;;;7.30;1.00;;;;;;8392104;28;20203;-64
2024/01/25 12:23:58;;;;;;;12.10;2.53;;;7.30;1.00;;;;;;8390573;28;20204;-66
2024/01/25 12:28:00;;;;;;;7.73;1.73;;;7.30;1.00;;;;;;8392954;28;20332;-64
2024/01/25 12:32:00;;;;;;;12.33;2.83;;;7.30;1.00;;;;;;8395609;28;20288;-65
2024/01/25 12:36:02;;;;;;;10.70;2.73;;;7.30;1.00;;;;;;8393565;28;20211;-62
2024/01/25 12:40:03;;;;;;;9.40;2.47;;;7.30;1.00;;;;;;8392626;28;20217;-62
2024/01/25 12:44:04;;;;;;;8.40;2.20;;;7.20;1.00;;;;;;8389706;28;20184;-63
2024/01/25 12:48:06;;;;;;;12.17;2.10;;;6.90;1.00;;;;;;8390864;28;20185;-63
2024/01/25 12:52:09;;;;;;;6.60;2.07;;;6.70;1.00;;;;;;8394102;28;20211;-64
2024/01/25 12:56:10;;;;;;;11.23;2.07;;;6.70;1.00;;;;;;8394662;28;20393;-66
2024/01/25 13:00:11;;;;;;;12.23;2.13;;;6.80;1.00;;;;;;8392266;28;20323;-65
2024/01/25 13:04:12;;;;;;;10.73;2.87;;;6.90;1.00;;;;;;8388027;28;20265;-65
2024/01/25 13:08:12;;;;;;;12.47;2.73;;;6.90;1.00;;;;;;8391267;28;20186;-66
2024/01/25 13:12:13;;;;;;;11.57;2.03;;;7.00;1.00;;;;;;8392206;28;20192;-65
2024/01/25 13:16:14;;;;;;;11.67;2.37;;;7.00;1.00;;;;;;8392762;28;20192;-66
2024/01/25 13:20:15;;;;;;;11.93;3.40;;;7.10;1.00;;;;;;8387382;28;20278;-64
2024/01/25 13:24:16;;;;;;;15.03;2.93;;;7.30;1.00;;;;;;8402175;28;20228;-65
2024/01/25 13:28:17;;;;;;;11.00;2.43;;;7.30;1.00;;;;;;8395401;28;20188;-65
2024/01/25 13:32:17;;;;;;;10.30;2.63;;;7.30;1.00;;;;;;8393517;28;20200;-68
2024/01/25 13:36:18;;;;;;;7.00;2.27;;;7.30;1.00;;;;;;8389617;28;20204;-70
2024/01/25 13:40:19;;;;;;;11.40;2.27;;;7.30;1.00;;;;;;8394256;28;20212;-65
2024/01/25 13:44:19;;;;;;;11.50;2.47;;;7.40;1.00;;;;;;8393868;28;20185;-67
2024/01/25 13:48:21;;;;;;;11.07;2.47;;;7.40;1.00;;;;;;8395166;28;20203;-66
2024/01/25 13:52:22;;;;;;;10.20;2.20;;;7.30;1.00;;;;;;8397975;28;20196;-66
2024/01/25 13:56:23;;;;;;;12.67;2.30;;;7.30;1.00;;;;;;8390006;28;20208;-66
2024/01/25 14:00:24;;;;;;;10.90;2.50;;;7.20;1.00;;;;;;8390659;28;20217;-66
2024/01/25 14:04:24;;;;;;;12.70;2.43;;;7.20;1.00;;;;;;8390927;28;20189;-64
2024/01/25 14:08:25;;;;;;;7.90;2.30;;;7.20;1.00;;;;;;8398229;28;20774;-67
2024/01/25 14:12:26;;;;;;;9.30;2.10;;;7.10;1.00;;;;;;8394148;28;20216;-63
2024/01/25 14:16:27;;;;;;;12.27;1.90;;;7.10;1.00;;;;;;8393560;28;20208;-67
2024/01/25 14:20:27;;;;;;;11.33;2.50;;;7.10;1.00;;;;;;8393879;28;20208;-64
2024/01/25 14:24:29;;;;;;;10.53;2.47;;;7.20;1.00;;;;;;8392135;28;20189;-65
2024/01/25 14:28:30;;;;;;;10.03;2.00;;;7.10;1.00;;;;;;8397169;28;20188;-64
2024/01/25 14:32:31;;;;;;;9.73;2.23;;;7.00;1.00;;;;;;8396264;28;20189;-66
2024/01/25 14:36:32;;;;;;;12.73;2.63;;;6.90;1.00;;;;;;8396807;28;20196;-66
2024/01/25 14:40:33;;;;;;;10.60;2.27;;;6.90;1.00;;;;;;8400669;28;20208;-66
2024/01/25 14:44:34;;;;;;;10.40;2.10;;;6.90;1.00;;;;;;8395700;28;20281;-65
2024/01/25 14:48:35;;;;;;;11.70;2.20;;;6.90;1.00;;;;;;8391116;28;20188;-65
2024/01/25 14:52:35;;;;;;;14.03;2.93;;;6.90;1.00;;;;;;8393061;28;20180;-63
2024/01/25 14:56:38;;;;;;;9.87;2.83;;;6.90;1.00;;;;;;8394528;28;20223;-64
2024/01/25 15:00:39;;;;;;;8.43;2.07;;;6.90;1.00;;;;;;8396462;28;20259;-64
2024/01/25 15:04:40;;;;;;;9.30;2.50;;;6.80;1.00;;;;;;8393586;28;20180;-65
2024/01/25 15:08:40;;;;;;;9.17;2.07;;;6.90;1.00;;;;;;8391314;28;20212;-66
2024/01/25 15:12:42;;;;;;;11.17;2.40;;;7.00;1.00;;;;;;8399454;28;20185;-63
2024/01/25 15:16:42;;;;;;;8.17;2.20;;;6.90;1.00;;;;;;8395872;28;20225;-65
2024/01/25 15:20:43;;;;;;;8.87;1.90;;;6.90;1.00;;;;;;8396653;28;20288;-64
2024/01/25 15:24:45;;;;;;;6.10;2.00;;;6.80;1.00;;;;;;8408591;28;20216;-67
2024/01/25 15:28:47;;;;;;;12.47;2.13;;;6.80;1.00;;;;;;8396816;28;20417;-64
2024/01/25 15:32:47;;;;;;;8.53;2.03;;;6.70;1.00;;;;;;8397033;28;20181;-64
2024/01/25 15:36:48;;;;;;;7.70;2.50;;;6.60;1.00;;;;;;8392563;28;20545;-64
2024/01/25 15:40:50;;;;;;;9.33;2.37;;;6.60;1.00;;;;;;8393900;28;20231;-64
2024/01/25 15:44:51;;;;;;;8.13;2.27;;;6.60;1.00;;;;;;8393699;28;20219;-64
2024/01/25 15:48:54;;;;;;;8.70;2.13;;;6.70;1.00;;;;;;8384168;28;20260;-64
2024/01/25 15:52:54;;;;;;;8.40;2.30;;;6.70;1.00;;;;;;8397885;28;20208;-66
2024/01/25 15:56:55;;;;;;;9.07;1.93;;;6.70;1.00;;;;;;8397415;28;20540;-67
2024/01/25 16:00:56;;;;;;;13.63;2.23;;;6.60;1.00;;;;;;8396869;28;20220;-64
2024/01/25 16:04:57;;;;;;;12.23;2.77;;;6.60;1.00;;;;;;8392768;28;20393;-61
2024/01/25 16:09:05;;;;;;;10.97;2.10;;;6.60;1.00;;;;;;8390777;28;20582;-63
2024/01/25 16:13:06;;;;;;;7.87;2.13;;;6.70;1.00;;;;;;8390289;28;20185;-62
2024/01/25 16:17:10;;;;;;;7.63;2.20;;;6.60;1.00;;;;;;8390861;28;20268;-62
2024/01/25 16:21:10;;;;;;;13.10;2.83;;;6.60;1.00;;;;;;8393748;28;20219;-63
2024/01/25 16:25:11;;;;;;;8.50;2.27;;;6.60;1.00;;;;;;8389929;28;20197;-63
2024/01/25 16:29:12;;;;;;;12.10;2.57;;;6.70;1.00;;;;;;8392036;28;20181;-62
2024/01/25 16:33:13;;;;;;;12.80;2.80;;;6.60;1.00;;;;;;8395277;28;20184;-61
2024/01/25 16:37:14;;;;;;;11.70;2.83;;;6.60;1.00;;;;;;8390024;28;20241;-62
2024/01/25 16:41:15;;;;;;;11.63;2.67;;;6.60;1.00;;;;;;8395991;28;20209;-63
2024/01/25 16:45:16;;;;;;;15.03;3.10;;;6.60;1.00;;;;;;8391095;28;20188;-61
2024/01/25 16:49:17;;;;;;;7.73;2.13;;;6.60;1.00;;;;;;8390810;28;20263;-63
2024/01/25 16:53:18;;;;;;;9.03;2.30;;;6.50;1.00;;;;;;8394600;28;20188;-61
2024/01/25 16:57:19;;;;;;;10.47;2.80;;;6.60;1.00;;;;;;8391808;28;20585;-62
2024/01/25 17:01:23;;;;;;;11.43;2.70;;;6.50;1.00;;;;;;8388968;28;20271;-61
2024/01/25 17:05:24;;;;;;;7.03;1.87;;;6.50;1.00;;;;;;8389299;28;20256;-64
2024/01/25 17:09:24;;;;;;;9.03;2.03;;;6.40;1.00;;;;;;8390669;28;20181;-63
2024/01/25 17:13:25;;;;;;;9.87;2.53;;;6.40;1.00;;;;;;8394045;28;20187;-66
2024/01/25 17:17:26;;;;;;;5.60;2.00;;;6.40;1.00;;;;;;8394297;28;20197;-63
2024/01/25 17:21:28;;;;;;;10.83;2.43;;;6.30;1.00;;;;;;8395577;28;20208;-62
2024/01/25 17:25:28;;;;;;;14.97;3.53;;;6.30;1.00;;;;;;8401304;28;20192;-62
2024/01/25 17:29:29;;;;;;;9.03;2.57;;;6.30;1.00;;;;;;8397194;28;20209;-62
2024/01/25 17:33:30;;;;;;;10.07;2.40;;;6.20;1.00;;;;;;8391079;28;20203;-62
2024/01/25 17:37:31;;;;;;;10.83;2.33;;;6.20;1.00;;;;;;8388529;28;20187;-62
2024/01/25 17:41:32;;;;;;;9.50;2.30;;;6.20;1.00;;;;;;8390755;28;20221;-62
2024/01/25 17:45:32;;;;;;;8.27;2.00;;;6.10;1.00;;;;;;8394562;28;20181;-62
2024/01/25 17:49:33;;;;;;;12.17;3.07;;;6.10;1.00;;;;;;8395498;28;20321;-62
2024/01/25 17:53:35;;;;;;;14.40;3.30;;;6.10;1.00;;;;;;8392588;28;20189;-62
2024/01/25 17:57:36;;;;;;;11.23;2.83;;;6.00;1.00;;;;;;8393731;28;20193;-61
2024/01/25 18:01:36;;;;;;;12.90;2.83;;;6.00;1.00;;;;;;8391496;28;20216;-61
2024/01/25 18:05:37;;;;;;;14.10;2.47;;;6.00;1.00;;;;;;8391454;28;20184;-61
2024/01/25 18:09:38;;;;;;;9.97;2.13;;;6.00;1.00;;;;;;8394366;28;20190;-62
2024/01/25 18:13:39;;;;;;;12.20;3.00;;;6.00;1.00;;;;;;8399093;28;20189;-61
2024/01/25 18:17:40;;;;;;;14.27;2.77;;;6.00;1.00;;;;;;8396289;28;20188;-61
2024/01/25 18:21:46;;;;;;;14.27;2.63;;;5.90;1.00;;;;;;8398867;28;20211;-59
2024/01/25 18:25:47;;;;;;;10.20;2.30;;;5.90;1.00;;;;;;8390299;28;20224;-60
2024/01/25 18:29:48;;;;;;;9.73;2.60;;;5.90;1.00;;;;;;8386358;28;20592;-61
2024/01/25 18:33:49;;;;;;;13.07;2.40;;;5.80;1.00;;;;;;8392121;28;20208;-61
2024/01/25 18:37:49;;;;;;;13.13;2.87;;;5.90;1.00;;;;;;8386393;28;20197;-61
2024/01/25 18:41:52;;;;;;;8.13;2.73;;;5.80;1.00;;;;;;8399109;28;20208;-61
2024/01/25 18:45:53;;;;;;;10.77;2.97;;;5.80;1.00;;;;;;8401207;28;20302;-61
2024/01/25 18:49:54;;;;;;;10.93;2.90;;;5.80;1.00;;;;;;8401341;28;20593;-60
2024/01/25 18:53:55;;;;;;;12.97;2.83;;;5.80;1.00;;;;;;8400355;28;20609;-61
2024/01/25 18:57:57;;;;;;;10.17;2.47;;;5.70;1.00;;;;;;8403934;28;20200;-62
2024/01/25 19:01:58;;;;;;;12.90;2.90;;;5.80;1.00;;;;;;8401353;28;20291;-62
2024/01/25 19:05:59;;;;;;;15.10;2.70;;;5.70;1.00;;;;;;8414761;27;20291;-61
2024/01/25 19:10:00;;;;;;;11.53;2.90;;;5.70;1.00;;;;;;8405352;28;20196;-61
2024/01/25 19:14:01;;;;;;;7.90;2.40;;;5.70;1.00;;;;;;8406250;28;20200;-61
2024/01/25 19:18:02;;;;;;;11.93;3.07;;;5.70;1.00;;;;;;8403359;28;20779;-61
2024/01/25 19:22:04;;;;;;;8.77;2.37;;;5.70;1.00;;;;;;8402860;28;20212;-61
2024/01/25 19:26:05;;;;;;;14.93;2.77;;;5.70;1.00;;;;;;8402365;28;20190;-61
2024/01/25 19:30:07;;;;;;;12.93;3.23;;;5.70;1.00;;;;;;8401824;28;20265;-60
2024/01/25 19:34:09;;;;;;;10.67;2.70;;;5.70;1.00;;;;;;8396870;28;20211;-59
2024/01/25 19:38:10;;;;;;;14.90;2.87;;;5.60;1.00;;;;;;8397375;28;20199;-61
2024/01/25 19:42:10;;;;;;;9.33;2.77;;;5.60;1.00;;;;;;8397780;28;20242;-63
2024/01/25 19:46:11;;;;;;;13.07;2.37;;;5.60;1.00;;;;;;8396760;28;20199;-65
2024/01/25 19:50:14;;;;;;;9.57;2.47;;;5.70;1.00;;;;;;8399493;28;20266;-63
2024/01/25 19:54:15;;;;;;;15.37;2.77;;;5.70;1.00;;;;;;8396074;28;20197;-61
2024/01/25 19:58:16;;;;;;;15.67;3.10;;;5.60;1.00;;;;;;8395656;28;20224;-62
2024/01/25 20:02:19;;;;;;;9.97;2.87;;;5.60;1.00;;;;;;8397684;28;21424;-61
2024/01/25 20:06:21;;;;;;;8.30;2.30;;;5.60;1.00;;;;;;8393514;28;20512;-62
2024/01/25 20:10:22;;;;;;;9.97;2.63;;;5.60;1.00;;;;;;8400050;28;20192;-60
2024/01/25 20:14:23;;;;;;;12.30;3.30;;;5.60;1.00;;;;;;8388190;28;20195;-60
2024/01/25 20:18:25;;;;;;;11.93;2.93;;;5.60;1.00;;;;;;8387357;28;20378;-62
2024/01/25 20:22:26;;;;;;;11.83;2.90;;;5.60;1.00;;;;;;8400457;28;20516;-61
2024/01/25 20:26:27;;;;;;;13.27;2.30;;;5.70;1.00;;;;;;8395006;28;20185;-61
2024/01/25 20:30:33;;;;;;;11.70;2.63;;;5.70;1.00;;;;;;8396356;28;20272;-61
2024/01/25 20:34:34;;;;;;;11.53;3.10;;;5.60;1.00;;;;;;8388508;28;20267;-60
2024/01/25 20:38:35;;;;;;;13.00;3.27;;;5.70;1.00;;;;;;8395377;28;20238;-61
2024/01/25 20:42:36;;;;;;;8.77;2.57;;;5.70;1.00;;;;;;8394559;28;20216;-60
2024/01/25 20:46:37;;;;;;;13.00;2.83;;;5.60;1.00;;;;;;8396662;28;20501;-60
2024/01/25 20:50:38;;;;;;;13.10;2.70;;;5.60;1.00;;;;;;8392390;28;20287;-62
2024/01/25 20:54:39;;;;;;;10.33;2.40;;;5.60;1.00;;;;;;8395755;28;20191;-60
2024/01/25 20:58:40;;;;;;;13.33;2.60;;;5.60;1.00;;;;;;8393341;28;20277;-60
2024/01/25 21:02:41;;;;;;;8.70;2.13;;;5.60;1.00;;;;;;8396642;28;20268;-59
2024/01/25 21:06:42;;;;;;;9.20;2.30;;;5.60;1.00;;;;;;8389029;28;20239;-61
2024/01/25 21:10:44;;;;;;;11.90;2.40;;;5.60;1.00;;;;;;8390728;28;20209;-60
2024/01/25 21:14:45;;;;;;;8.70;2.23;;;5.60;1.00;;;;;;8388787;28;20198;-62